VOE7SP LEBB-LEZL
Flight info
| Callsign | VOE7SP |
|---|---|
| Flight time | 1h 3m |
| Altitude | 33000 |
| Route | AMTOS L14 NEA DCT NONTU DCT ORBIS DCT DISKO DCT TLD DCT DOPEN DCT MONTO DCT MOLIN DCT HIJ |
| Aircraft | A320/M-SDE3FGHIRWY/LB1 |
Departure
| Time | 2026-05-07 19:06 |
|---|---|
| Airport | Bilbao Airport (LEBB) |
Arrival
| Time | 2026-05-07 20:09 |
|---|---|
| Airport | Seville Airport (LEZL) |
| Time | Latitude | Longitude | Altitude | Speed | Heading |
|---|---|---|---|---|---|
| 2026-05-07 18:36 | 43.30469 | -2.90738 | 132 ft | 0 kts | 27° |
| 2026-05-07 18:57 | 43.30451 | -2.90751 | 132 ft | 3 kts | 32° |
| 2026-05-07 18:57 | 43.30431 | -2.90767 | 132 ft | 3 kts | 13° |
| 2026-05-07 18:58 | 43.30412 | -2.90767 | 132 ft | 3 kts | 344° |
| 2026-05-07 18:58 | 43.30394 | -2.90753 | 132 ft | 3 kts | 303° |
| 2026-05-07 18:58 | 43.30383 | -2.90726 | 132 ft | 2 kts | 296° |
| 2026-05-07 18:58 | 43.30383 | -2.90723 | 132 ft | 0 kts | 296° |
| 2026-05-07 19:00 | 43.30386 | -2.90732 | 132 ft | 5 kts | 297° |
| 2026-05-07 19:01 | 43.30410 | -2.90804 | 132 ft | 8 kts | 285° |
| 2026-05-07 19:01 | 43.30413 | -2.90878 | 132 ft | 7 kts | 272° |
| 2026-05-07 19:01 | 43.30410 | -2.90954 | 132 ft | 8 kts | 251° |
| 2026-05-07 19:01 | 43.30359 | -2.91001 | 132 ft | 12 kts | 205° |
| 2026-05-07 19:02 | 43.30309 | -2.91078 | 132 ft | 11 kts | 274° |
| 2026-05-07 19:02 | 43.30340 | -2.91182 | 132 ft | 15 kts | 297° |
| 2026-05-07 19:02 | 43.30397 | -2.91338 | 132 ft | 20 kts | 296° |
| 2026-05-07 19:02 | 43.30464 | -2.91519 | 132 ft | 22 kts | 298° |
| 2026-05-07 19:03 | 43.30536 | -2.91717 | 132 ft | 24 kts | 295° |
| 2026-05-07 19:03 | 43.30614 | -2.91932 | 132 ft | 26 kts | 297° |
| 2026-05-07 19:03 | 43.30698 | -2.92162 | 132 ft | 28 kts | 297° |
| 2026-05-07 19:03 | 43.30778 | -2.92374 | 132 ft | 18 kts | 296° |
| 2026-05-07 19:04 | 43.30797 | -2.92489 | 132 ft | 10 kts | 252° |
| 2026-05-07 19:04 | 43.30744 | -2.92506 | 132 ft | 8 kts | 162° |
| 2026-05-07 19:04 | 43.30697 | -2.92483 | 134 ft | 9 kts | 160° |
| 2026-05-07 19:04 | 43.30632 | -2.92449 | 127 ft | 9 kts | 153° |
| 2026-05-07 19:05 | 43.30608 | -2.92421 | 133 ft | 0 kts | 119° |
| 2026-05-07 19:05 | 43.30584 | -2.92357 | 127 ft | 29 kts | 117° |
| 2026-05-07 19:05 | 43.30370 | -2.91772 | 125 ft | 103 kts | 116° |
| 2026-05-07 19:05 | 43.29955 | -2.90641 | 148 ft | 157 kts | 117° |
| 2026-05-07 19:06 | 43.29478 | -2.89335 | 856 ft | 149 kts | 117° |
| 2026-05-07 19:06 | 43.28512 | -2.86720 | 2163 ft | 158 kts | 116° |
| 2026-05-07 19:06 | 43.28012 | -2.85363 | 2816 ft | 159 kts | 115° |
| 2026-05-07 19:07 | 43.27514 | -2.84003 | 3463 ft | 161 kts | 115° |
| 2026-05-07 19:07 | 43.26987 | -2.82563 | 3836 ft | 182 kts | 115° |
| 2026-05-07 19:07 | 43.26383 | -2.80915 | 4186 ft | 205 kts | 116° |
| 2026-05-07 19:07 | 43.25701 | -2.79060 | 4532 ft | 230 kts | 117° |
| 2026-05-07 19:08 | 43.24941 | -2.76998 | 5007 ft | 255 kts | 117° |
| 2026-05-07 19:08 | 43.24080 | -2.74787 | 5748 ft | 268 kts | 124° |
| 2026-05-07 19:08 | 43.22695 | -2.73054 | 6648 ft | 275 kts | 152° |
| 2026-05-07 19:08 | 43.20846 | -2.72401 | 7572 ft | 281 kts | 180° |
| 2026-05-07 19:09 | 43.18953 | -2.73037 | 8499 ft | 286 kts | 209° |
| 2026-05-07 19:09 | 43.17408 | -2.74764 | 9420 ft | 290 kts | 225° |
| 2026-05-07 19:09 | 43.15951 | -2.76707 | 10281 ft | 297 kts | 223° |
| 2026-05-07 19:09 | 43.14356 | -2.78683 | 10654 ft | 321 kts | 221° |
| 2026-05-07 19:10 | 43.12613 | -2.80766 | 11004 ft | 343 kts | 221° |
| 2026-05-07 19:10 | 43.10778 | -2.82937 | 11681 ft | 352 kts | 221° |
| 2026-05-07 19:10 | 43.08920 | -2.85143 | 12513 ft | 356 kts | 221° |
| 2026-05-07 19:10 | 43.07047 | -2.87384 | 13329 ft | 359 kts | 221° |
| 2026-05-07 19:11 | 43.05168 | -2.89647 | 14110 ft | 362 kts | 221° |
| 2026-05-07 19:11 | 43.03270 | -2.91949 | 14874 ft | 366 kts | 221° |
| 2026-05-07 19:11 | 43.01360 | -2.94267 | 15624 ft | 370 kts | 221° |
| 2026-05-07 19:11 | 42.99524 | -2.96493 | 16306 ft | 373 kts | 221° |
| 2026-05-07 19:12 | 42.97572 | -2.98851 | 17007 ft | 376 kts | 221° |
| 2026-05-07 19:12 | 42.95600 | -3.01230 | 17690 ft | 380 kts | 221° |
| 2026-05-07 19:12 | 42.93633 | -3.03600 | 18352 ft | 384 kts | 221° |
| 2026-05-07 19:12 | 42.91599 | -3.06049 | 19032 ft | 387 kts | 221° |
| 2026-05-07 19:13 | 42.89599 | -3.08453 | 19683 ft | 390 kts | 221° |
| 2026-05-07 19:13 | 42.87554 | -3.10909 | 20326 ft | 393 kts | 221° |
| 2026-05-07 19:13 | 42.85468 | -3.13416 | 20959 ft | 396 kts | 221° |
| 2026-05-07 19:13 | 42.83395 | -3.15905 | 21550 ft | 399 kts | 221° |
| 2026-05-07 19:14 | 42.81329 | -3.18379 | 22114 ft | 401 kts | 221° |
| 2026-05-07 19:14 | 42.79197 | -3.20934 | 22685 ft | 404 kts | 221° |
| 2026-05-07 19:14 | 42.77078 | -3.23470 | 23212 ft | 407 kts | 221° |
| 2026-05-07 19:14 | 42.74945 | -3.26019 | 23727 ft | 410 kts | 221° |
| 2026-05-07 19:15 | 42.72827 | -3.28549 | 24215 ft | 412 kts | 221° |
| 2026-05-07 19:15 | 42.70668 | -3.31127 | 24695 ft | 414 kts | 221° |
| 2026-05-07 19:15 | 42.68495 | -3.33719 | 25159 ft | 416 kts | 221° |
| 2026-05-07 19:15 | 42.66312 | -3.36321 | 25591 ft | 419 kts | 221° |
| 2026-05-07 19:16 | 42.64110 | -3.38942 | 26017 ft | 422 kts | 221° |
| 2026-05-07 19:16 | 42.61889 | -3.41579 | 26412 ft | 425 kts | 221° |
| 2026-05-07 19:16 | 42.59658 | -3.44225 | 26815 ft | 427 kts | 221° |
| 2026-05-07 19:16 | 42.57413 | -3.46884 | 27189 ft | 430 kts | 221° |
| 2026-05-07 19:17 | 42.55152 | -3.49560 | 27550 ft | 432 kts | 221° |
| 2026-05-07 19:17 | 42.52881 | -3.52251 | 27899 ft | 435 kts | 221° |
| 2026-05-07 19:17 | 42.50598 | -3.54955 | 28225 ft | 437 kts | 221° |
| 2026-05-07 19:17 | 42.48294 | -3.57675 | 28546 ft | 440 kts | 221° |
| 2026-05-07 19:18 | 42.45981 | -3.60401 | 28850 ft | 442 kts | 221° |
| 2026-05-07 19:18 | 42.43654 | -3.63141 | 29138 ft | 445 kts | 221° |
| 2026-05-07 19:18 | 42.41316 | -3.65895 | 29410 ft | 447 kts | 221° |
| 2026-05-07 19:18 | 42.38964 | -3.68661 | 29667 ft | 449 kts | 221° |
| 2026-05-07 19:19 | 42.36600 | -3.71442 | 29943 ft | 450 kts | 221° |
| 2026-05-07 19:19 | 42.34238 | -3.74222 | 30286 ft | 450 kts | 221° |
| 2026-05-07 19:19 | 42.31878 | -3.76994 | 30619 ft | 449 kts | 221° |
| 2026-05-07 19:19 | 42.29521 | -3.79759 | 30949 ft | 449 kts | 221° |
| 2026-05-07 19:20 | 42.27165 | -3.82519 | 31275 ft | 449 kts | 221° |
| 2026-05-07 19:20 | 42.24797 | -3.85283 | 31598 ft | 449 kts | 222° |
| 2026-05-07 19:20 | 42.22439 | -3.88036 | 31915 ft | 449 kts | 222° |
| 2026-05-07 19:20 | 42.20077 | -3.90790 | 32242 ft | 448 kts | 222° |
| 2026-05-07 19:21 | 42.17718 | -3.93537 | 32570 ft | 448 kts | 222° |
| 2026-05-07 19:21 | 42.15390 | -3.96248 | 32861 ft | 448 kts | 222° |
| 2026-05-07 19:21 | 42.10685 | -4.01722 | 32945 ft | 446 kts | 222° |
| 2026-05-07 19:22 | 42.05937 | -4.07087 | 32944 ft | 446 kts | 217° |
| 2026-05-07 19:22 | 42.00337 | -4.10718 | 32941 ft | 452 kts | 198° |
| 2026-05-07 19:23 | 41.94090 | -4.11893 | 32944 ft | 455 kts | 187° |
| 2026-05-07 19:23 | 41.87775 | -4.12603 | 32941 ft | 456 kts | 187° |
| 2026-05-07 19:24 | 41.81460 | -4.13334 | 32937 ft | 456 kts | 187° |
| 2026-05-07 19:24 | 41.75143 | -4.14061 | 32935 ft | 455 kts | 187° |
| 2026-05-07 19:25 | 41.68832 | -4.14783 | 32935 ft | 455 kts | 187° |
| 2026-05-07 19:25 | 41.62516 | -4.15505 | 32933 ft | 455 kts | 187° |
| 2026-05-07 19:26 | 41.56201 | -4.16202 | 32931 ft | 455 kts | 187° |
| 2026-05-07 19:26 | 41.49886 | -4.16905 | 32929 ft | 456 kts | 187° |
| 2026-05-07 19:27 | 41.43565 | -4.17619 | 32927 ft | 456 kts | 187° |
| 2026-05-07 19:27 | 41.37244 | -4.18330 | 32926 ft | 456 kts | 187° |
| 2026-05-07 19:28 | 41.30922 | -4.19038 | 32925 ft | 456 kts | 187° |
| 2026-05-07 19:28 | 41.24590 | -4.19744 | 32924 ft | 457 kts | 188° |
| 2026-05-07 19:29 | 41.18256 | -4.20456 | 32922 ft | 457 kts | 188° |
| 2026-05-07 19:29 | 41.11910 | -4.21168 | 32922 ft | 458 kts | 188° |
| 2026-05-07 19:30 | 41.06632 | -4.21757 | 32922 ft | 458 kts | 188° |
| 2026-05-07 19:30 | 41.00274 | -4.22459 | 32922 ft | 458 kts | 188° |
| 2026-05-07 19:31 | 40.93916 | -4.23159 | 32924 ft | 459 kts | 188° |
| 2026-05-07 19:31 | 40.87548 | -4.23867 | 32926 ft | 459 kts | 188° |
| 2026-05-07 19:32 | 40.81184 | -4.24584 | 32926 ft | 459 kts | 189° |
| 2026-05-07 19:32 | 40.74813 | -4.25289 | 32928 ft | 460 kts | 188° |
| 2026-05-07 19:33 | 40.68435 | -4.25981 | 32931 ft | 460 kts | 189° |
| 2026-05-07 19:33 | 40.62048 | -4.26687 | 32931 ft | 461 kts | 189° |
| 2026-05-07 19:34 | 40.55657 | -4.27395 | 32929 ft | 461 kts | 189° |
| 2026-05-07 19:34 | 40.49262 | -4.28080 | 32928 ft | 461 kts | 189° |
| 2026-05-07 19:35 | 40.42868 | -4.28768 | 32928 ft | 461 kts | 189° |
| 2026-05-07 19:35 | 40.36473 | -4.29460 | 32928 ft | 462 kts | 189° |
| 2026-05-07 19:36 | 40.30076 | -4.30150 | 32930 ft | 462 kts | 189° |
| 2026-05-07 19:36 | 40.23674 | -4.30838 | 32929 ft | 461 kts | 189° |
| 2026-05-07 19:37 | 40.17279 | -4.31539 | 32928 ft | 461 kts | 189° |
| 2026-05-07 19:37 | 40.10880 | -4.32240 | 32925 ft | 462 kts | 189° |
| 2026-05-07 19:38 | 40.04472 | -4.32929 | 32926 ft | 462 kts | 189° |
| 2026-05-07 19:38 | 39.98063 | -4.33617 | 32927 ft | 462 kts | 189° |
| 2026-05-07 19:39 | 39.91698 | -4.34625 | 32931 ft | 460 kts | 194° |
| 2026-05-07 19:39 | 39.85455 | -4.36076 | 32933 ft | 458 kts | 195° |
| 2026-05-07 19:40 | 39.79184 | -4.37577 | 32933 ft | 459 kts | 195° |
| 2026-05-07 19:40 | 39.72891 | -4.38971 | 32939 ft | 459 kts | 194° |
| 2026-05-07 19:41 | 39.66579 | -4.40292 | 32937 ft | 459 kts | 194° |
| 2026-05-07 19:41 | 39.60268 | -4.41606 | 32937 ft | 460 kts | 194° |
| 2026-05-07 19:42 | 39.53959 | -4.42944 | 32938 ft | 459 kts | 194° |
| 2026-05-07 19:42 | 39.47661 | -4.44292 | 32942 ft | 458 kts | 194° |
| 2026-05-07 19:43 | 39.41370 | -4.45634 | 32942 ft | 458 kts | 194° |
| 2026-05-07 19:43 | 39.35081 | -4.46966 | 32941 ft | 458 kts | 194° |
| 2026-05-07 19:44 | 39.28796 | -4.48296 | 32938 ft | 458 kts | 194° |
| 2026-05-07 19:44 | 39.22630 | -4.50103 | 32931 ft | 450 kts | 205° |
| 2026-05-07 19:45 | 39.17224 | -4.53895 | 32928 ft | 440 kts | 218° |
| 2026-05-07 19:45 | 39.12127 | -4.58266 | 32923 ft | 440 kts | 218° |
| 2026-05-07 19:46 | 39.07018 | -4.62616 | 32923 ft | 440 kts | 218° |
| 2026-05-07 19:46 | 39.01913 | -4.66954 | 32922 ft | 440 kts | 218° |
| 2026-05-07 19:47 | 38.96802 | -4.71292 | 32914 ft | 440 kts | 218° |
| 2026-05-07 19:47 | 38.91689 | -4.75616 | 32910 ft | 440 kts | 218° |
| 2026-05-07 19:48 | 38.86577 | -4.79932 | 32914 ft | 440 kts | 218° |
| 2026-05-07 19:48 | 38.81466 | -4.84242 | 32907 ft | 439 kts | 218° |
| 2026-05-07 19:49 | 38.76360 | -4.88555 | 32910 ft | 439 kts | 218° |
| 2026-05-07 19:49 | 38.71257 | -4.92852 | 32913 ft | 439 kts | 217° |
| 2026-05-07 19:50 | 38.66153 | -4.97132 | 32910 ft | 438 kts | 217° |
| 2026-05-07 19:50 | 38.63603 | -4.99263 | 32749 ft | 436 kts | 217° |
| 2026-05-07 19:50 | 38.61097 | -5.01356 | 31918 ft | 436 kts | 217° |
| 2026-05-07 19:51 | 38.58547 | -5.03490 | 30955 ft | 439 kts | 217° |
| 2026-05-07 19:51 | 38.55984 | -5.05638 | 29918 ft | 443 kts | 217° |
| 2026-05-07 19:51 | 38.53399 | -5.07804 | 28826 ft | 447 kts | 216° |
| 2026-05-07 19:51 | 38.50679 | -5.09778 | 27688 ft | 454 kts | 208° |
| 2026-05-07 19:52 | 38.47705 | -5.11187 | 26774 ft | 456 kts | 200° |
| 2026-05-07 19:52 | 38.44689 | -5.12351 | 25956 ft | 451 kts | 200° |
| 2026-05-07 19:52 | 38.41704 | -5.13517 | 25175 ft | 446 kts | 200° |
| 2026-05-07 19:52 | 38.38755 | -5.14676 | 24411 ft | 441 kts | 200° |
| 2026-05-07 19:53 | 38.35837 | -5.15822 | 23653 ft | 437 kts | 199° |
| 2026-05-07 19:53 | 38.32942 | -5.16955 | 22926 ft | 433 kts | 199° |
| 2026-05-07 19:53 | 38.30084 | -5.18075 | 22235 ft | 428 kts | 199° |
| 2026-05-07 19:53 | 38.27243 | -5.19187 | 21563 ft | 425 kts | 199° |
| 2026-05-07 19:54 | 38.24432 | -5.20284 | 20916 ft | 420 kts | 199° |
| 2026-05-07 19:54 | 38.21654 | -5.21369 | 20281 ft | 416 kts | 199° |
| 2026-05-07 19:54 | 38.18896 | -5.22446 | 19656 ft | 412 kts | 199° |
| 2026-05-07 19:54 | 38.16164 | -5.23508 | 19046 ft | 409 kts | 199° |
| 2026-05-07 19:55 | 38.13455 | -5.24557 | 18446 ft | 405 kts | 199° |
| 2026-05-07 19:55 | 38.10772 | -5.25598 | 17861 ft | 402 kts | 199° |
| 2026-05-07 19:55 | 38.08106 | -5.26632 | 17277 ft | 399 kts | 199° |
| 2026-05-07 19:55 | 38.05465 | -5.27659 | 16708 ft | 395 kts | 198° |
| 2026-05-07 19:56 | 38.02849 | -5.28674 | 16142 ft | 392 kts | 198° |
| 2026-05-07 19:56 | 38.00255 | -5.29680 | 15597 ft | 387 kts | 198° |
| 2026-05-07 19:56 | 37.97691 | -5.30676 | 15003 ft | 384 kts | 198° |
| 2026-05-07 19:56 | 37.95146 | -5.31666 | 14420 ft | 381 kts | 198° |
| 2026-05-07 19:57 | 37.92624 | -5.32642 | 13848 ft | 378 kts | 198° |
| 2026-05-07 19:57 | 37.90118 | -5.33607 | 13272 ft | 374 kts | 198° |
| 2026-05-07 19:57 | 37.87639 | -5.34560 | 12689 ft | 371 kts | 198° |
| 2026-05-07 19:57 | 37.85182 | -5.35505 | 12085 ft | 367 kts | 197° |
| 2026-05-07 19:58 | 37.82750 | -5.36443 | 11481 ft | 364 kts | 197° |
| 2026-05-07 19:58 | 37.80342 | -5.37375 | 10855 ft | 361 kts | 197° |
| 2026-05-07 19:58 | 37.77971 | -5.38375 | 10202 ft | 358 kts | 203° |
| 2026-05-07 19:58 | 37.75836 | -5.39884 | 9959 ft | 343 kts | 215° |
| 2026-05-07 19:59 | 37.74047 | -5.41755 | 9832 ft | 326 kts | 222° |
| 2026-05-07 19:59 | 37.72391 | -5.43611 | 9700 ft | 311 kts | 221° |
| 2026-05-07 19:59 | 37.70807 | -5.45380 | 9574 ft | 297 kts | 222° |
| 2026-05-07 19:59 | 37.69290 | -5.47069 | 9342 ft | 286 kts | 221° |
| 2026-05-07 20:00 | 37.67802 | -5.48728 | 8942 ft | 285 kts | 221° |
| 2026-05-07 20:00 | 37.66328 | -5.50377 | 8536 ft | 283 kts | 221° |
| 2026-05-07 20:00 | 37.64863 | -5.52023 | 8120 ft | 281 kts | 222° |
| 2026-05-07 20:00 | 37.63420 | -5.53669 | 7719 ft | 279 kts | 222° |
| 2026-05-07 20:01 | 37.61990 | -5.55310 | 7304 ft | 276 kts | 222° |
| 2026-05-07 20:01 | 37.60678 | -5.56817 | 6913 ft | 274 kts | 222° |
| 2026-05-07 20:01 | 37.59754 | -5.57873 | 6632 ft | 273 kts | 222° |
| 2026-05-07 20:01 | 37.58681 | -5.59102 | 6309 ft | 271 kts | 222° |
| 2026-05-07 20:02 | 37.57289 | -5.60692 | 5887 ft | 269 kts | 222° |
| 2026-05-07 20:02 | 37.55905 | -5.62273 | 5452 ft | 267 kts | 222° |
| 2026-05-07 20:02 | 37.54481 | -5.63762 | 5008 ft | 266 kts | 210° |
| 2026-05-07 20:02 | 37.52719 | -5.64277 | 4583 ft | 264 kts | 175° |
| 2026-05-07 20:03 | 37.51035 | -5.63435 | 4109 ft | 264 kts | 146° |
| 2026-05-07 20:03 | 37.49535 | -5.62084 | 3611 ft | 265 kts | 147° |
| 2026-05-07 20:03 | 37.47987 | -5.60922 | 3330 ft | 256 kts | 154° |
| 2026-05-07 20:03 | 37.46348 | -5.60098 | 2967 ft | 251 kts | 164° |
| 2026-05-07 20:04 | 37.44655 | -5.59787 | 2636 ft | 244 kts | 188° |
| 2026-05-07 20:04 | 37.43114 | -5.60558 | 2315 ft | 238 kts | 218° |
| 2026-05-07 20:04 | 37.42114 | -5.62144 | 2047 ft | 230 kts | 248° |
| 2026-05-07 20:04 | 37.41842 | -5.64055 | 1999 ft | 215 kts | 270° |
| 2026-05-07 20:05 | 37.41843 | -5.65902 | 2002 ft | 210 kts | 269° |
| 2026-05-07 20:05 | 37.41841 | -5.67739 | 2004 ft | 208 kts | 269° |
| 2026-05-07 20:05 | 37.41839 | -5.69493 | 2000 ft | 195 kts | 269° |
| 2026-05-07 20:05 | 37.41837 | -5.71175 | 1990 ft | 189 kts | 269° |
| 2026-05-07 20:06 | 37.41835 | -5.72816 | 1785 ft | 187 kts | 269° |
| 2026-05-07 20:06 | 37.41832 | -5.74423 | 1588 ft | 183 kts | 269° |
| 2026-05-07 20:06 | 37.41828 | -5.75964 | 1528 ft | 169 kts | 269° |
| 2026-05-07 20:06 | 37.41824 | -5.77372 | 1483 ft | 153 kts | 269° |
| 2026-05-07 20:07 | 37.41821 | -5.78666 | 1414 ft | 144 kts | 269° |
| 2026-05-07 20:07 | 37.41819 | -5.79898 | 1289 ft | 138 kts | 269° |
| 2026-05-07 20:07 | 37.41817 | -5.81094 | 1120 ft | 135 kts | 269° |
| 2026-05-07 20:07 | 37.41814 | -5.82273 | 955 ft | 135 kts | 269° |
| 2026-05-07 20:08 | 37.41811 | -5.83455 | 786 ft | 135 kts | 269° |
| 2026-05-07 20:08 | 37.41806 | -5.84628 | 579 ft | 134 kts | 270° |
| 2026-05-07 20:08 | 37.41805 | -5.85793 | 392 ft | 133 kts | 269° |
| 2026-05-07 20:08 | 37.41801 | -5.86949 | 246 ft | 132 kts | 269° |
| 2026-05-07 20:09 | 37.41797 | -5.88092 | 112 ft | 124 kts | 268° |
| 2026-05-07 20:09 | 37.41795 | -5.89008 | 103 ft | 81 kts | 269° |
| 2026-05-07 20:09 | 37.41794 | -5.89503 | 99 ft | 35 kts | 271° |
| 2026-05-07 20:10 | 37.41882 | -5.89822 | 98 ft | 14 kts | 343° |
| 2026-05-07 20:10 | 37.41949 | -5.89852 | 96 ft | 8 kts | 335° |
| 2026-05-07 20:10 | 37.41993 | -5.89878 | 96 ft | 7 kts | 334° |
| 2026-05-07 20:10 | 37.42041 | -5.89906 | 94 ft | 8 kts | 337° |
| 2026-05-07 20:11 | 37.42095 | -5.89932 | 93 ft | 8 kts | 346° |
| 2026-05-07 20:11 | 37.42143 | -5.89909 | 97 ft | 7 kts | 43° |
| 2026-05-07 20:11 | 37.42181 | -5.89905 | 94 ft | 5 kts | 325° |
| 2026-05-07 20:11 | 37.42206 | -5.89937 | 94 ft | 5 kts | 314° |
| 2026-05-07 20:12 | 37.42215 | -5.89948 | 93 ft | 1 kts | 314° |
| 2026-05-07 20:12 | 37.42215 | -5.89949 | 94 ft | 0 kts | 314° |